Time;durP1;ratioP1;P1;durP2;ratioP2;P2;SDS_P1;SDS_P2;PMS_P1;PMS_P2;Temp;Humidity;BMP_temperature;BMP_pressure;BME280_temperature;BME280_humidity;BME280_pressure;Samples;Min_cycle;Max_cycle;Signal;HPM_P1;HPM_P2
2023/03/24 00:00:04;;;;;;;2.08;0.70;;;;;;;;;;5009136;28;20075;-76
2023/03/24 00:02:36;;;;;;;0.40;0.40;;;;;;;;;;5009583;28;20022;-76
2023/03/24 00:05:02;;;;;;;1.38;0.60;;;;;;;;;;5006104;28;20160;-76
2023/03/24 00:07:29;;;;;;;0.70;0.70;;;;;;;;;;5006288;28;20026;-76
2023/03/24 00:09:58;;;;;;;1.00;0.77;;;;;;;;;;5010462;28;20054;-77
2023/03/24 00:12:24;;;;;;;2.70;0.60;;;;;;;;;;5011439;28;20287;-77
2023/03/24 00:14:53;;;;;;;1.00;0.77;;;;;;;;;;5014249;28;20473;-77
2023/03/24 00:17:24;;;;;;;1.08;0.50;;;;;;;;;;5019373;28;20117;-77
2023/03/24 00:19:50;;;;;;;0.82;0.50;;;;;;;;;;5011547;28;20083;-77
2023/03/24 00:22:16;;;;;;;2.78;0.60;;;;;;;;;;5008028;28;20037;-77
2023/03/24 00:24:45;;;;;;;0.70;0.63;;;;;;;;;;5007224;28;20041;-76
2023/03/24 00:27:12;;;;;;;0.50;0.50;;;;;;;;;;5021671;28;20030;-76
2023/03/24 00:29:38;;;;;;;0.65;0.50;;;;;;;;;;5013257;28;20083;-77
2023/03/24 00:32:05;;;;;;;0.50;0.30;;;;;;;;;;5012338;28;20041;-77
2023/03/24 00:34:33;;;;;;;0.88;0.65;;;;;;;;;;5012116;28;20543;-77
2023/03/24 00:36:59;;;;;;;1.08;0.98;;;;;;;;;;5004233;28;20057;-77
2023/03/24 00:39:24;;;;;;;1.15;0.57;;;;;;;;;;5010492;28;20674;-77
2023/03/24 00:41:51;;;;;;;0.88;0.50;;;;;;;;;;5007990;28;20539;-76
2023/03/24 00:44:16;;;;;;;0.70;0.70;;;;;;;;;;5005472;28;20125;-77
2023/03/24 00:47:05;;;;;;;0.93;0.52;;;;;;;;;;5009680;28;20108;-77
2023/03/24 00:49:41;;;;;;;0.68;0.55;;;;;;;;;;5009290;28;20026;-77
2023/03/24 00:52:08;;;;;;;1.10;0.80;;;;;;;;;;5020213;28;20471;-76
2023/03/24 00:54:35;;;;;;;0.68;0.68;;;;;;;;;;5010683;28;20033;-76
2023/03/24 00:57:01;;;;;;;1.60;0.50;;;;;;;;;;5010362;28;20059;-76
2023/03/24 00:59:28;;;;;;;1.02;0.60;;;;;;;;;;5008686;28;20068;-77
2023/03/24 01:01:55;;;;;;;0.47;0.47;;;;;;;;;;5006622;28;20190;-76
2023/03/24 01:04:23;;;;;;;1.45;0.57;;;;;;;;;;5008049;28;20536;-76
2023/03/24 01:06:51;;;;;;;0.40;0.40;;;;;;;;;;5010752;28;20116;-76
2023/03/24 01:09:17;;;;;;;0.55;0.47;;;;;;;;;;5015600;28;20017;-76
2023/03/24 01:11:43;;;;;;;0.30;0.30;;;;;;;;;;5013901;28;20061;-76
2023/03/24 01:14:10;;;;;;;0.98;0.50;;;;;;;;;;5001377;28;20401;-76
2023/03/24 01:16:36;;;;;;;1.23;0.60;;;;;;;;;;5009437;28;20046;-76
2023/03/24 01:19:02;;;;;;;0.50;0.50;;;;;;;;;;5008894;28;20116;-76
2023/03/24 01:21:28;;;;;;;0.50;0.50;;;;;;;;;;5020533;28;20443;-77
2023/03/24 01:23:54;;;;;;;0.85;0.40;;;;;;;;;;5011338;28;20026;-76
2023/03/24 01:26:20;;;;;;;0.65;0.45;;;;;;;;;;5017164;28;20048;-76
2023/03/24 01:28:46;;;;;;;0.65;0.60;;;;;;;;;;5007524;28;20023;-76
2023/03/24 01:31:12;;;;;;;0.63;0.52;;;;;;;;;;5012994;28;20029;-76
2023/03/24 01:33:38;;;;;;;0.43;0.43;;;;;;;;;;5007630;28;20038;-76
2023/03/24 01:36:05;;;;;;;0.70;0.70;;;;;;;;;;5007109;28;20457;-76
2023/03/24 01:38:31;;;;;;;0.40;0.40;;;;;;;;;;5008206;28;20038;-76
2023/03/24 01:40:57;;;;;;;0.50;0.50;;;;;;;;;;5011122;28;20502;-77
2023/03/24 01:43:31;;;;;;;1.00;0.60;;;;;;;;;;5013322;28;20405;-77
2023/03/24 01:46:00;;;;;;;0.35;0.35;;;;;;;;;;5010373;28;20068;-76
2023/03/24 01:48:28;;;;;;;0.60;0.47;;;;;;;;;;5010359;28;20531;-76
2023/03/24 01:50:56;;;;;;;0.63;0.63;;;;;;;;;;5005500;28;20207;-77
2023/03/24 01:53:22;;;;;;;0.80;0.43;;;;;;;;;;5009023;28;20037;-76
2023/03/24 01:55:48;;;;;;;1.00;0.60;;;;;;;;;;5008667;28;20029;-77
2023/03/24 01:58:15;;;;;;;0.55;0.52;;;;;;;;;;5004393;28;20033;-76
2023/03/24 02:00:41;;;;;;;0.40;0.38;;;;;;;;;;5009596;28;20485;-76
2023/03/24 02:03:17;;;;;;;0.93;0.63;;;;;;;;;;5012439;28;20042;-76
2023/03/24 02:05:44;;;;;;;0.40;0.40;;;;;;;;;;5012163;28;20135;-76
2023/03/24 02:08:10;;;;;;;0.75;0.60;;;;;;;;;;5005845;28;20032;-76
2023/03/24 02:10:36;;;;;;;0.60;0.60;;;;;;;;;;5007466;28;20018;-76
2023/03/24 02:13:03;;;;;;;0.35;0.30;;;;;;;;;;5008050;28;20465;-76
2023/03/24 02:15:31;;;;;;;0.90;0.60;;;;;;;;;;5008232;28;20079;-76
2023/03/24 02:18:20;;;;;;;0.40;0.40;;;;;;;;;;5000650;28;20042;-76
2023/03/24 02:21:04;;;;;;;0.57;0.55;;;;;;;;;;5008094;28;20084;-76
2023/03/24 02:23:30;;;;;;;0.43;0.43;;;;;;;;;;5003845;28;20018;-76
2023/03/24 02:26:18;;;;;;;0.28;0.28;;;;;;;;;;4998819;28;20041;-76
2023/03/24 02:28:47;;;;;;;0.60;0.60;;;;;;;;;;5003518;28;20070;-77
2023/03/24 02:31:23;;;;;;;0.22;0.22;;;;;;;;;;5008914;28;20096;-76
2023/03/24 02:34:07;;;;;;;0.60;0.60;;;;;;;;;;5008541;28;20022;-76
2023/03/24 02:36:53;;;;;;;0.60;0.60;;;;;;;;;;5004786;28;20036;-76
2023/03/24 02:39:28;;;;;;;2.08;0.45;;;;;;;;;;5007065;28;20084;-76
2023/03/24 02:41:56;;;;;;;0.45;0.40;;;;;;;;;;5006558;28;20037;-76
2023/03/24 02:44:29;;;;;;;0.95;0.55;;;;;;;;;;5012926;28;20408;-76
2023/03/24 02:46:58;;;;;;;0.60;0.60;;;;;;;;;;5008160;28;20037;-75
2023/03/24 02:49:44;;;;;;;0.40;0.40;;;;;;;;;;5011626;28;20021;-76
2023/03/24 02:52:18;;;;;;;1.40;0.60;;;;;;;;;;5011313;28;20033;-76
2023/03/24 02:54:49;;;;;;;0.32;0.32;;;;;;;;;;5006778;28;20030;-76
2023/03/24 02:57:30;;;;;;;2.20;0.47;;;;;;;;;;5015438;28;20129;-76
2023/03/24 02:59:59;;;;;;;0.47;0.47;;;;;;;;;;5006209;28;20034;-76
2023/03/24 03:02:27;;;;;;;0.43;0.43;;;;;;;;;;5009104;28;20101;-77
2023/03/24 03:04:55;;;;;;;0.40;0.40;;;;;;;;;;5008063;28;20044;-76
2023/03/24 03:07:23;;;;;;;0.60;0.60;;;;;;;;;;5016223;28;20065;-76
2023/03/24 03:09:59;;;;;;;0.50;0.50;;;;;;;;;;5007480;28;20618;-76
2023/03/24 03:12:27;;;;;;;0.73;0.68;;;;;;;;;;5004916;28;20026;-76
2023/03/24 03:14:55;;;;;;;0.50;0.50;;;;;;;;;;5013189;28;20035;-76
2023/03/24 03:17:29;;;;;;;0.50;0.50;;;;;;;;;;5006821;28;20030;-76
2023/03/24 03:19:56;;;;;;;0.50;0.50;;;;;;;;;;5004438;28;20034;-76
2023/03/24 03:22:24;;;;;;;0.40;0.40;;;;;;;;;;5010729;28;20076;-77
2023/03/24 03:24:52;;;;;;;0.50;0.50;;;;;;;;;;5006404;28;20152;-76
2023/03/24 03:27:38;;;;;;;0.50;0.50;;;;;;;;;;5005319;28;20169;-76
2023/03/24 03:30:08;;;;;;;0.50;0.50;;;;;;;;;;5005469;28;20072;-77
2023/03/24 03:32:37;;;;;;;0.47;0.47;;;;;;;;;;5009136;28;20040;-76
2023/03/24 03:35:09;;;;;;;0.50;0.50;;;;;;;;;;5001144;28;20049;-76
2023/03/24 03:37:38;;;;;;;1.00;0.52;;;;;;;;;;5014269;28;20034;-76
2023/03/24 03:40:11;;;;;;;0.50;0.50;;;;;;;;;;5003436;28;20219;-76
2023/03/24 03:42:37;;;;;;;0.35;0.35;;;;;;;;;;5005793;28;20038;-77
2023/03/24 03:45:03;;;;;;;0.75;0.60;;;;;;;;;;5014150;28;20141;-76
2023/03/24 03:47:30;;;;;;;0.30;0.30;;;;;;;;;;5012005;28;20130;-76
2023/03/24 03:49:56;;;;;;;0.35;0.32;;;;;;;;;;5009445;28;20080;-76
2023/03/24 03:52:22;;;;;;;0.57;0.57;;;;;;;;;;5017113;28;20025;-77
2023/03/24 03:54:49;;;;;;;0.30;0.30;;;;;;;;;;5010035;28;20125;-76
2023/03/24 03:57:16;;;;;;;0.50;0.50;;;;;;;;;;5008086;28;20030;-76
2023/03/24 03:59:42;;;;;;;0.30;0.30;;;;;;;;;;5005717;28;20037;-76
2023/03/24 04:02:15;;;;;;;0.40;0.40;;;;;;;;;;5007504;28;20026;-76
2023/03/24 04:05:00;;;;;;;0.30;0.30;;;;;;;;;;5005818;28;20041;-76
2023/03/24 04:07:27;;;;;;;0.70;0.40;;;;;;;;;;5008614;28;20037;-76
2023/03/24 04:09:56;;;;;;;0.57;0.47;;;;;;;;;;5008771;28;20073;-76
2023/03/24 04:12:22;;;;;;;0.45;0.45;;;;;;;;;;5005939;28;20014;-76
2023/03/24 04:14:56;;;;;;;1.15;0.35;;;;;;;;;;5006008;28;20373;-77
2023/03/24 04:17:22;;;;;;;0.80;0.60;;;;;;;;;;5007782;28;20500;-77
2023/03/24 04:20:04;;;;;;;0.60;0.60;;;;;;;;;;5006502;28;20046;-76
2023/03/24 04:22:49;;;;;;;0.40;0.40;;;;;;;;;;5006308;28;20129;-76
2023/03/24 04:25:15;;;;;;;0.73;0.57;;;;;;;;;;5003891;28;20113;-76
2023/03/24 04:27:55;;;;;;;0.60;0.60;;;;;;;;;;5003569;28;20570;-76
2023/03/24 04:30:26;;;;;;;0.52;0.52;;;;;;;;;;5005508;28;20045;-76
2023/03/24 04:33:07;;;;;;;0.40;0.40;;;;;;;;;;5007340;28;20029;-77
2023/03/24 04:35:35;;;;;;;0.50;0.50;;;;;;;;;;5005461;28;20057;-76
2023/03/24 04:38:04;;;;;;;0.50;0.50;;;;;;;;;;5015364;28;20401;-77
2023/03/24 04:40:32;;;;;;;0.40;0.40;;;;;;;;;;5005754;28;20034;-76
2023/03/24 04:42:59;;;;;;;0.45;0.45;;;;;;;;;;5004753;28;20030;-76
2023/03/24 04:45:25;;;;;;;1.52;0.80;;;;;;;;;;5008009;28;20038;-76
2023/03/24 04:47:52;;;;;;;0.63;0.40;;;;;;;;;;5013496;28;20022;-76
2023/03/24 04:50:33;;;;;;;1.13;0.65;;;;;;;;;;5005046;28;20609;-76
2023/03/24 04:53:02;;;;;;;0.30;0.30;;;;;;;;;;5006120;28;20485;-76
2023/03/24 04:55:49;;;;;;;0.73;0.50;;;;;;;;;;5016874;28;20100;-76
2023/03/24 04:58:19;;;;;;;0.60;0.52;;;;;;;;;;4994944;28;20046;-76
2023/03/24 05:00:45;;;;;;;1.27;0.50;;;;;;;;;;5009981;28;20018;-75
2023/03/24 05:03:15;;;;;;;0.60;0.60;;;;;;;;;;5011180;28;20049;-77
2023/03/24 05:05:45;;;;;;;0.80;0.70;;;;;;;;;;5009846;28;20037;-76
2023/03/24 05:08:11;;;;;;;0.93;0.53;;;;;;;;;;5011965;28;20028;-76
2023/03/24 05:10:37;;;;;;;0.55;0.50;;;;;;;;;;5028736;28;20758;-77
2023/03/24 05:13:04;;;;;;;1.08;0.70;;;;;;;;;;5011049;28;20045;-76
2023/03/24 05:15:30;;;;;;;0.50;0.50;;;;;;;;;;5007895;28;20041;-76
2023/03/24 05:17:56;;;;;;;0.88;0.75;;;;;;;;;;5006347;28;20124;-76
2023/03/24 05:20:23;;;;;;;1.08;0.50;;;;;;;;;;5010281;28;20148;-75
2023/03/24 05:22:50;;;;;;;0.60;0.55;;;;;;;;;;5006854;28;20048;-75
2023/03/24 05:25:16;;;;;;;0.60;0.60;;;;;;;;;;5003525;28;20061;-76
2023/03/24 05:27:43;;;;;;;0.30;0.30;;;;;;;;;;5009469;28;20030;-76
2023/03/24 05:30:09;;;;;;;0.65;0.55;;;;;;;;;;5013913;28;20034;-75
2023/03/24 05:32:35;;;;;;;1.50;1.00;;;;;;;;;;5006073;28;20029;-76
2023/03/24 05:35:01;;;;;;;0.63;0.50;;;;;;;;;;5003099;28;20089;-76
2023/03/24 05:37:27;;;;;;;0.50;0.50;;;;;;;;;;5021258;28;20037;-78
2023/03/24 05:39:53;;;;;;;1.60;0.77;;;;;;;;;;5003848;28;20033;-77
2023/03/24 05:42:19;;;;;;;0.70;0.60;;;;;;;;;;5007218;28;20037;-77
2023/03/24 05:44:46;;;;;;;0.60;0.60;;;;;;;;;;5012576;28;20100;-77
2023/03/24 05:47:14;;;;;;;0.68;0.68;;;;;;;;;;5008892;28;20068;-78
2023/03/24 05:49:41;;;;;;;0.47;0.45;;;;;;;;;;5009010;28;20018;-78
2023/03/24 05:52:08;;;;;;;1.10;0.80;;;;;;;;;;5011048;28;20024;-77
2023/03/24 05:54:38;;;;;;;2.25;1.45;;;;;;;;;;5015718;28;20050;-77
2023/03/24 05:57:06;;;;;;;1.02;0.82;;;;;;;;;;5009837;28;20022;-77
2023/03/24 05:59:32;;;;;;;0.63;0.52;;;;;;;;;;5007643;28;20025;-77
2023/03/24 06:01:58;;;;;;;0.60;0.60;;;;;;;;;;5013331;28;20468;-76
2023/03/24 06:04:28;;;;;;;0.95;0.60;;;;;;;;;;5007580;28;20025;-77
2023/03/24 06:06:54;;;;;;;0.70;0.70;;;;;;;;;;5012185;28;20036;-77
2023/03/24 06:09:21;;;;;;;0.70;0.70;;;;;;;;;;5013014;28;20022;-77
2023/03/24 06:11:47;;;;;;;0.70;0.63;;;;;;;;;;5013448;28;20033;-77
2023/03/24 06:14:13;;;;;;;0.63;0.63;;;;;;;;;;5005110;28;20083;-77
2023/03/24 06:16:39;;;;;;;1.10;1.00;;;;;;;;;;5014754;28;20482;-78
2023/03/24 06:19:05;;;;;;;1.00;0.90;;;;;;;;;;5009567;28;20064;-76
2023/03/24 06:21:32;;;;;;;0.90;0.70;;;;;;;;;;5014164;28;20087;-75
2023/03/24 06:23:58;;;;;;;1.40;0.90;;;;;;;;;;5015631;28;20048;-75
2023/03/24 06:26:24;;;;;;;0.50;0.50;;;;;;;;;;5006458;28;20153;-82
2023/03/24 06:28:50;;;;;;;0.80;0.70;;;;;;;;;;5021973;28;20381;-72
2023/03/24 06:31:20;;;;;;;1.35;0.70;;;;;;;;;;5017082;28;20033;-78
2023/03/24 06:33:47;;;;;;;0.57;0.50;;;;;;;;;;5021713;28;20033;-78
2023/03/24 06:36:14;;;;;;;2.60;0.88;;;;;;;;;;5015509;28;20090;-77
2023/03/24 06:38:41;;;;;;;0.52;0.52;;;;;;;;;;5022849;28;20477;-78
2023/03/24 06:41:07;;;;;;;1.02;0.75;;;;;;;;;;5008934;28;20481;-75
2023/03/24 06:43:34;;;;;;;0.60;0.50;;;;;;;;;;5008229;28;20045;-78
2023/03/24 06:46:00;;;;;;;1.75;0.98;;;;;;;;;;5027041;28;20103;-80
2023/03/24 06:48:26;;;;;;;0.70;0.70;;;;;;;;;;5009609;28;20041;-76
2023/03/24 06:50:53;;;;;;;0.80;0.80;;;;;;;;;;5009650;28;20053;-75
2023/03/24 06:53:23;;;;;;;0.40;0.40;;;;;;;;;;5022084;28;20275;-77
2023/03/24 06:55:49;;;;;;;0.52;0.50;;;;;;;;;;5028959;28;20776;-77
2023/03/24 06:58:16;;;;;;;0.57;0.57;;;;;;;;;;5028903;28;20037;-76
2023/03/24 07:00:43;;;;;;;0.60;0.60;;;;;;;;;;5009361;28;20105;-75
2023/03/24 07:03:08;;;;;;;3.53;0.80;;;;;;;;;;5012627;28;20058;-76
2023/03/24 07:05:38;;;;;;;2.33;0.60;;;;;;;;;;5009259;28;20029;-77
2023/03/24 07:08:04;;;;;;;0.60;0.60;;;;;;;;;;5008727;28;20029;-77
2023/03/24 07:10:30;;;;;;;0.70;0.70;;;;;;;;;;5008702;28;20105;-76
2023/03/24 07:12:58;;;;;;;0.93;0.90;;;;;;;;;;5009212;28;20480;-76
2023/03/24 07:15:24;;;;;;;0.85;0.82;;;;;;;;;;5008622;28;20571;-76
2023/03/24 07:17:50;;;;;;;1.17;0.63;;;;;;;;;;5007332;28;20022;-75
2023/03/24 07:20:16;;;;;;;0.93;0.52;;;;;;;;;;5007694;28;20037;-75
2023/03/24 07:22:42;;;;;;;1.00;0.50;;;;;;;;;;5007957;28;20401;-76
2023/03/24 07:25:08;;;;;;;0.70;0.70;;;;;;;;;;5018360;28;20029;-77
2023/03/24 07:27:36;;;;;;;1.33;0.63;;;;;;;;;;5002921;28;20081;-77
2023/03/24 07:30:03;;;;;;;0.88;0.60;;;;;;;;;;5028513;28;20018;-76
2023/03/24 07:32:33;;;;;;;0.63;0.63;;;;;;;;;;5008210;28;20079;-77
2023/03/24 07:35:00;;;;;;;0.83;0.80;;;;;;;;;;5002726;28;20036;-78
2023/03/24 07:37:26;;;;;;;1.42;0.90;;;;;;;;;;5007681;28;20452;-78
2023/03/24 07:39:52;;;;;;;1.90;0.80;;;;;;;;;;5008031;28;20034;-76
2023/03/24 07:42:18;;;;;;;1.27;0.77;;;;;;;;;;5010452;28;20032;-76
2023/03/24 07:44:44;;;;;;;1.02;0.70;;;;;;;;;;5006134;28;20045;-76
2023/03/24 07:47:10;;;;;;;1.33;0.95;;;;;;;;;;5008447;28;20109;-77
2023/03/24 07:49:36;;;;;;;0.85;0.70;;;;;;;;;;5006537;28;20412;-76
2023/03/24 07:52:05;;;;;;;0.70;0.70;;;;;;;;;;5004026;28;20063;-76
2023/03/24 07:54:32;;;;;;;1.48;0.70;;;;;;;;;;5006022;28;20041;-73
2023/03/24 07:56:58;;;;;;;0.95;0.70;;;;;;;;;;5006837;28;20161;-75
2023/03/24 07:59:24;;;;;;;2.28;0.65;;;;;;;;;;5006129;28;20142;-74
2023/03/24 08:01:50;;;;;;;1.15;0.65;;;;;;;;;;5010702;28;20037;-74
2023/03/24 08:04:16;;;;;;;1.83;0.93;;;;;;;;;;5007323;28;20038;-74
2023/03/24 08:06:43;;;;;;;0.70;0.70;;;;;;;;;;5005229;28;20093;-73
2023/03/24 08:09:10;;;;;;;3.15;0.80;;;;;;;;;;5003327;28;20483;-74
2023/03/24 08:11:36;;;;;;;0.85;0.70;;;;;;;;;;5007796;28;20030;-74
2023/03/24 08:14:02;;;;;;;2.08;0.90;;;;;;;;;;5006095;28;20029;-74
2023/03/24 08:16:28;;;;;;;0.90;0.80;;;;;;;;;;5006719;28;21229;-74
2023/03/24 08:18:57;;;;;;;2.08;0.90;;;;;;;;;;5005496;28;20034;-74
2023/03/24 08:21:23;;;;;;;0.40;0.40;;;;;;;;;;5007151;28;20488;-74
2023/03/24 08:23:49;;;;;;;0.65;0.65;;;;;;;;;;5016786;28;20049;-75
2023/03/24 08:26:15;;;;;;;0.63;0.60;;;;;;;;;;5026612;28;20021;-77
2023/03/24 08:28:41;;;;;;;2.25;0.60;;;;;;;;;;5006504;28;20033;-74
2023/03/24 08:31:07;;;;;;;1.30;0.73;;;;;;;;;;5006245;28;20069;-74
2023/03/24 08:33:34;;;;;;;1.33;0.70;;;;;;;;;;5009908;28;20491;-75
2023/03/24 08:36:00;;;;;;;2.50;0.82;;;;;;;;;;5008239;28;20026;-76
2023/03/24 08:38:29;;;;;;;0.82;0.80;;;;;;;;;;5009024;28;20041;-75
2023/03/24 08:40:57;;;;;;;2.33;0.70;;;;;;;;;;5007655;28;20423;-78
2023/03/24 08:43:24;;;;;;;0.60;0.60;;;;;;;;;;5007724;28;20481;-77
2023/03/24 08:45:50;;;;;;;1.83;0.80;;;;;;;;;;5003660;28;20052;-78
2023/03/24 08:48:16;;;;;;;0.95;0.80;;;;;;;;;;5008726;28;20026;-76
2023/03/24 08:50:42;;;;;;;1.90;0.63;;;;;;;;;;5007504;28;20018;-78
2023/03/24 08:53:10;;;;;;;0.80;0.80;;;;;;;;;;5008916;28;20084;-77
2023/03/24 08:55:40;;;;;;;1.00;0.90;;;;;;;;;;5009059;28;20036;-79
2023/03/24 08:58:06;;;;;;;1.70;0.88;;;;;;;;;;5008689;28;20025;-75
2023/03/24 09:00:32;;;;;;;1.33;0.60;;;;;;;;;;5010161;28;20036;-77
2023/03/24 09:02:59;;;;;;;0.70;0.70;;;;;;;;;;5005063;28;20362;-74
2023/03/24 09:05:26;;;;;;;1.35;0.90;;;;;;;;;;5007739;28;20061;-72
2023/03/24 09:07:52;;;;;;;1.17;0.80;;;;;;;;;;5008696;28;20469;-73
2023/03/24 09:10:18;;;;;;;1.35;0.95;;;;;;;;;;5009149;28;20024;-78
2023/03/24 09:12:44;;;;;;;0.90;0.90;;;;;;;;;;5007805;28;20034;-74
2023/03/24 09:15:11;;;;;;;0.93;0.70;;;;;;;;;;5007792;28;20025;-74
2023/03/24 09:17:38;;;;;;;1.75;0.98;;;;;;;;;;5008311;28;20034;-76
2023/03/24 09:20:10;;;;;;;0.70;0.43;;;;;;;;;;5009557;28;20030;-78
2023/03/24 09:22:37;;;;;;;0.60;0.60;;;;;;;;;;5008717;28;20408;-77
2023/03/24 09:25:03;;;;;;;1.65;0.98;;;;;;;;;;5008142;28;20037;-76
2023/03/24 09:27:29;;;;;;;0.73;0.68;;;;;;;;;;5007994;28;20452;-76
2023/03/24 09:29:55;;;;;;;1.05;0.80;;;;;;;;;;5006615;28;20105;-74
2023/03/24 09:32:21;;;;;;;1.40;0.80;;;;;;;;;;5005979;28;20100;-74
2023/03/24 09:34:47;;;;;;;3.05;1.00;;;;;;;;;;5007784;28;20030;-76
2023/03/24 09:37:13;;;;;;;1.30;1.17;;;;;;;;;;5005957;28;20042;-86
2023/03/24 09:39:39;;;;;;;1.25;0.95;;;;;;;;;;4998055;28;20048;-88
2023/03/24 09:42:07;;;;;;;2.13;1.00;;;;;;;;;;5004501;28;20443;-87
2023/03/24 09:44:36;;;;;;;1.77;1.00;;;;;;;;;;5006632;28;20103;-88
2023/03/24 09:47:10;;;;;;;1.40;0.88;;;;;;;;;;5011199;28;20034;-87
2023/03/24 09:49:37;;;;;;;0.80;0.73;;;;;;;;;;5007210;28;20120;-89
2023/03/24 09:52:07;;;;;;;1.00;0.90;;;;;;;;;;5003721;28;20026;-89
2023/03/24 09:55:02;;;;;;;1.27;1.10;;;;;;;;;;5009962;28;20523;-88
2023/03/24 09:57:32;;;;;;;1.38;1.10;;;;;;;;;;5004103;28;20060;-87
2023/03/24 09:59:58;;;;;;;1.42;0.80;;;;;;;;;;5008779;28;20525;-85
2023/03/24 10:02:28;;;;;;;0.95;0.75;;;;;;;;;;5004005;28;20113;-88
2023/03/24 10:04:54;;;;;;;3.33;0.93;;;;;;;;;;5002688;28;20557;-88
2023/03/24 10:07:37;;;;;;;0.90;0.70;;;;;;;;;;4993974;28;20242;-89
2023/03/24 10:10:03;;;;;;;2.55;0.80;;;;;;;;;;4989380;28;20030;-89
2023/03/24 10:12:31;;;;;;;1.25;1.05;;;;;;;;;;5004087;28;20049;-89
2023/03/24 10:15:16;;;;;;;1.40;0.90;;;;;;;;;;5002897;28;20035;-74
2023/03/24 10:17:59;;;;;;;1.52;1.00;;;;;;;;;;5001422;28;20042;-74
2023/03/24 10:20:31;;;;;;;1.00;0.93;;;;;;;;;;5005719;28;20045;-75
2023/03/24 10:23:04;;;;;;;2.45;0.90;;;;;;;;;;5006527;28;20581;-74
2023/03/24 10:25:30;;;;;;;1.13;0.85;;;;;;;;;;5007583;28;20029;-74
2023/03/24 10:28:00;;;;;;;1.40;1.00;;;;;;;;;;5009641;28;20072;-74
2023/03/24 10:30:28;;;;;;;0.95;0.63;;;;;;;;;;5009288;28;20507;-74
2023/03/24 10:32:54;;;;;;;1.58;1.00;;;;;;;;;;5009731;28;20508;-74
2023/03/24 10:35:22;;;;;;;0.70;0.70;;;;;;;;;;5008620;28;20120;-74
2023/03/24 10:37:49;;;;;;;0.85;0.70;;;;;;;;;;5009304;28;20026;-74
2023/03/24 10:40:17;;;;;;;1.27;0.90;;;;;;;;;;5008968;28;20032;-74
2023/03/24 10:42:44;;;;;;;0.90;0.75;;;;;;;;;;5008999;28;20026;-74
2023/03/24 10:45:27;;;;;;;0.80;0.80;;;;;;;;;;5007860;28;20085;-73
2023/03/24 10:47:56;;;;;;;1.00;0.90;;;;;;;;;;5006744;28;20105;-73
2023/03/24 10:50:24;;;;;;;1.25;0.70;;;;;;;;;;5008756;28;20034;-73
2023/03/24 10:52:52;;;;;;;1.92;0.63;;;;;;;;;;5008763;28;20026;-73
2023/03/24 10:55:19;;;;;;;0.80;0.80;;;;;;;;;;5010484;28;20066;-73
2023/03/24 10:57:47;;;;;;;1.33;0.85;;;;;;;;;;5028788;28;20029;-74
2023/03/24 11:00:32;;;;;;;3.00;0.70;;;;;;;;;;5028695;28;20109;-73
2023/03/24 11:03:11;;;;;;;0.80;0.80;;;;;;;;;;5028959;28;20112;-73
2023/03/24 11:05:38;;;;;;;1.85;0.80;;;;;;;;;;5016580;28;20119;-73
2023/03/24 11:08:22;;;;;;;2.35;0.90;;;;;;;;;;5008754;28;20018;-73
2023/03/24 11:10:48;;;;;;;2.00;1.15;;;;;;;;;;5008727;28;20108;-73
2023/03/24 11:13:25;;;;;;;0.93;0.77;;;;;;;;;;5008863;28;20034;-73
2023/03/24 11:16:10;;;;;;;3.45;0.98;;;;;;;;;;5007463;28;20033;-74
2023/03/24 11:18:36;;;;;;;2.03;1.17;;;;;;;;;;5001544;28;20038;-73
2023/03/24 11:21:03;;;;;;;0.73;0.73;;;;;;;;;;5008349;28;20018;-73
2023/03/24 11:23:33;;;;;;;1.77;0.88;;;;;;;;;;5008754;28;20071;-73
2023/03/24 11:26:02;;;;;;;0.87;0.87;;;;;;;;;;5007151;28;20033;-74
2023/03/24 11:28:28;;;;;;;1.13;0.80;;;;;;;;;;5016575;28;20091;-73
2023/03/24 11:30:55;;;;;;;1.25;0.85;;;;;;;;;;5028402;28;20025;-73
2023/03/24 11:33:21;;;;;;;1.30;0.93;;;;;;;;;;5015884;28;20032;-73
2023/03/24 11:35:48;;;;;;;1.58;0.90;;;;;;;;;;5028465;28;20033;-74
2023/03/24 11:38:18;;;;;;;1.55;0.70;;;;;;;;;;5025139;28;20033;-74
2023/03/24 11:40:57;;;;;;;1.27;0.93;;;;;;;;;;5008021;28;21616;-74
2023/03/24 11:43:23;;;;;;;1.42;0.98;;;;;;;;;;5005762;28;20042;-73
2023/03/24 11:45:58;;;;;;;1.20;0.75;;;;;;;;;;5008175;28;20519;-74
2023/03/24 11:48:38;;;;;;;0.80;0.80;;;;;;;;;;5008339;28;20388;-73
2023/03/24 11:51:05;;;;;;;0.98;0.85;;;;;;;;;;5008281;28;20022;-73
2023/03/24 11:53:36;;;;;;;1.23;0.93;;;;;;;;;;5007997;28;20556;-73
2023/03/24 11:56:06;;;;;;;0.95;0.73;;;;;;;;;;5027904;28;20033;-73
2023/03/24 11:58:38;;;;;;;1.40;0.90;;;;;;;;;;5028054;28;20108;-74
2023/03/24 12:01:14;;;;;;;1.17;0.88;;;;;;;;;;5013677;28;20126;-74
2023/03/24 12:03:42;;;;;;;1.20;0.90;;;;;;;;;;5007774;28;20040;-73
2023/03/24 12:06:25;;;;;;;0.80;0.68;;;;;;;;;;5010961;28;20080;-74
2023/03/24 12:08:51;;;;;;;1.00;0.80;;;;;;;;;;5012383;28;20080;-74
2023/03/24 12:11:22;;;;;;;1.48;1.17;;;;;;;;;;5011634;28;20030;-73
2023/03/24 12:13:50;;;;;;;1.83;1.08;;;;;;;;;;5031987;28;20112;-73
2023/03/24 12:16:25;;;;;;;3.70;0.70;;;;;;;;;;5031827;28;20140;-73
2023/03/24 12:19:14;;;;;;;0.90;0.88;;;;;;;;;;5031768;28;20021;-74
2023/03/24 12:21:46;;;;;;;0.77;0.70;;;;;;;;;;5019623;28;20075;-73
2023/03/24 12:24:19;;;;;;;1.20;0.80;;;;;;;;;;5024520;28;20478;-74
2023/03/24 12:26:45;;;;;;;1.33;0.93;;;;;;;;;;5031563;28;20022;-73
2023/03/24 12:29:36;;;;;;;0.70;0.60;;;;;;;;;;5031501;28;20018;-74
2023/03/24 12:32:08;;;;;;;0.70;0.63;;;;;;;;;;5020696;28;20169;-74
2023/03/24 12:34:45;;;;;;;0.77;0.77;;;;;;;;;;5021247;28;20042;-73
2023/03/24 12:37:17;;;;;;;2.78;1.40;;;;;;;;;;5031749;28;20021;-74
2023/03/24 12:40:01;;;;;;;0.88;0.75;;;;;;;;;;5016291;28;20380;-74
2023/03/24 12:42:31;;;;;;;1.25;0.80;;;;;;;;;;5010010;28;20428;-73
2023/03/24 12:45:12;;;;;;;0.65;0.65;;;;;;;;;;5011375;28;20475;-74
2023/03/24 12:47:38;;;;;;;;;;;;;;;;;;5011779;28;20030;-74
2023/03/24 12:50:13;;;;;;;0.93;0.77;;;;;;;;;;5010128;28;20055;-73
2023/03/24 12:52:58;;;;;;;1.88;0.80;;;;;;;;;;5003675;28;20029;-74
2023/03/24 12:55:41;;;;;;;1.15;0.93;;;;;;;;;;5011470;28;20113;-74
2023/03/24 12:58:11;;;;;;;0.85;0.75;;;;;;;;;;5030874;28;20049;-74
2023/03/24 13:00:44;;;;;;;0.80;0.80;;;;;;;;;;5030922;28;20129;-74
2023/03/24 13:03:16;;;;;;;0.95;0.65;;;;;;;;;;5031218;28;20040;-74
2023/03/24 13:05:46;;;;;;;1.05;0.95;;;;;;;;;;5022889;28;20550;-74
2023/03/24 13:08:15;;;;;;;0.60;0.60;;;;;;;;;;5006735;28;22116;-74
2023/03/24 13:10:42;;;;;;;0.45;0.45;;;;;;;;;;5018855;28;20587;-74
2023/03/24 13:13:17;;;;;;;0.65;0.60;;;;;;;;;;5017874;28;20059;-73
2023/03/24 13:15:49;;;;;;;1.38;0.70;;;;;;;;;;5007432;28;20041;-74
2023/03/24 13:18:15;;;;;;;;;;;;;;;;;;5009978;28;20053;-74
2023/03/24 13:20:43;;;;;;;0.65;0.60;;;;;;;;;;5010492;28;20907;-74
2023/03/24 13:23:30;;;;;;;0.55;0.55;;;;;;;;;;5011057;28;20029;-74
2023/03/24 13:26:08;;;;;;;0.65;0.57;;;;;;;;;;4988832;28;20132;-74
2023/03/24 13:28:38;;;;;;;0.90;0.80;;;;;;;;;;5010766;28;20030;-74
2023/03/24 13:31:04;;;;;;;1.23;0.70;;;;;;;;;;5010340;28;20463;-74
2023/03/24 13:33:33;;;;;;;0.88;0.73;;;;;;;;;;5010391;28;20033;-74
2023/03/24 13:36:12;;;;;;;0.73;0.65;;;;;;;;;;5009237;28;20589;-74
2023/03/24 13:38:42;;;;;;;0.50;0.50;;;;;;;;;;5010485;28;20076;-74
2023/03/24 13:41:12;;;;;;;0.60;0.60;;;;;;;;;;5009863;28;20018;-74
2023/03/24 13:43:46;;;;;;;1.08;0.77;;;;;;;;;;5010304;28;20046;-75
2023/03/24 13:46:15;;;;;;;0.52;0.50;;;;;;;;;;5009460;28;20388;-74
2023/03/24 13:48:45;;;;;;;0.63;0.63;;;;;;;;;;5009683;28;20057;-73
2023/03/24 13:51:31;;;;;;;0.63;0.63;;;;;;;;;;5017990;28;20463;-74
2023/03/24 13:54:05;;;;;;;0.45;0.45;;;;;;;;;;5030021;28;20397;-74
2023/03/24 13:56:35;;;;;;;1.20;0.47;;;;;;;;;;5029873;28;20029;-73
2023/03/24 13:59:01;;;;;;;0.73;0.60;;;;;;;;;;5029730;28;20025;-74
2023/03/24 14:01:30;;;;;;;0.90;0.90;;;;;;;;;;5014540;28;20037;-73
2023/03/24 14:04:15;;;;;;;1.17;0.50;;;;;;;;;;5002482;28;20088;-74
2023/03/24 14:06:47;;;;;;;1.30;0.60;;;;;;;;;;5025351;28;20263;-74
2023/03/24 14:09:16;;;;;;;0.95;0.65;;;;;;;;;;5029951;28;20388;-73
2023/03/24 14:11:44;;;;;;;0.47;0.47;;;;;;;;;;5017327;28;20626;-74
2023/03/24 14:14:13;;;;;;;0.40;0.40;;;;;;;;;;5009894;28;20025;-73
2023/03/24 14:16:58;;;;;;;0.80;0.70;;;;;;;;;;5009383;28;20040;-73
2023/03/24 14:19:25;;;;;;;0.55;0.55;;;;;;;;;;5009281;28;20030;-74
2023/03/24 14:21:52;;;;;;;0.50;0.50;;;;;;;;;;5008839;28;20493;-74
2023/03/24 14:24:44;;;;;;;0.63;0.63;;;;;;;;;;5008795;28;20109;-73
2023/03/24 14:27:22;;;;;;;0.93;0.63;;;;;;;;;;5025211;28;20038;-74
2023/03/24 14:29:53;;;;;;;0.73;0.50;;;;;;;;;;5028924;28;20021;-74
2023/03/24 14:32:21;;;;;;;0.60;0.60;;;;;;;;;;5029322;28;20034;-73
2023/03/24 14:34:58;;;;;;;0.50;0.50;;;;;;;;;;5014122;28;20380;-74
2023/03/24 14:37:26;;;;;;;0.47;0.45;;;;;;;;;;5029033;28;20017;-74
2023/03/24 14:39:52;;;;;;;0.57;0.50;;;;;;;;;;5013363;28;20350;-74
2023/03/24 14:42:33;;;;;;;0.68;0.68;;;;;;;;;;5009287;28;20022;-74
2023/03/24 14:45:00;;;;;;;0.70;0.70;;;;;;;;;;5007378;28;20137;-75
2023/03/24 14:47:31;;;;;;;0.93;0.68;;;;;;;;;;5012169;28;20385;-74
2023/03/24 14:49:57;;;;;;;0.80;0.60;;;;;;;;;;5029509;28;20025;-74
2023/03/24 14:52:27;;;;;;;1.02;0.75;;;;;;;;;;5012541;28;20080;-74
2023/03/24 14:55:00;;;;;;;0.90;0.68;;;;;;;;;;5006637;28;20109;-74
2023/03/24 14:57:26;;;;;;;1.35;0.70;;;;;;;;;;4997227;28;20030;-74